sensor_id;sensor_type;location;lat;lon;timestamp;P1;durP1;ratioP1;P2;durP2;ratioP2
17141;SDS011;32805;53.556;9.944;2023-07-13T00:01:18;3.53;;;2.92;;
17141;SDS011;32805;53.556;9.944;2023-07-13T00:03:47;5.50;;;2.85;;
17141;SDS011;32805;53.556;9.944;2023-07-13T00:06:14;4.10;;;2.45;;
17141;SDS011;32805;53.556;9.944;2023-07-13T00:08:42;4.13;;;2.58;;
17141;SDS011;32805;53.556;9.944;2023-07-13T00:11:10;3.80;;;2.45;;
17141;SDS011;32805;53.556;9.944;2023-07-13T00:13:38;3.15;;;2.70;;
17141;SDS011;32805;53.556;9.944;2023-07-13T00:16:07;3.53;;;2.50;;
17141;SDS011;32805;53.556;9.944;2023-07-13T00:18:37;3.53;;;2.70;;
17141;SDS011;32805;53.556;9.944;2023-07-13T00:21:05;4.05;;;2.90;;
17141;SDS011;32805;53.556;9.944;2023-07-13T00:23:32;4.68;;;2.90;;
17141;SDS011;32805;53.556;9.944;2023-07-13T00:26:01;4.25;;;2.60;;
17141;SDS011;32805;53.556;9.944;2023-07-13T00:28:29;3.78;;;2.65;;
17141;SDS011;32805;53.556;9.944;2023-07-13T00:30:58;2.50;;;2.30;;
17141;SDS011;32805;53.556;9.944;2023-07-13T00:33:26;4.82;;;2.90;;
17141;SDS011;32805;53.556;9.944;2023-07-13T00:35:57;5.97;;;2.83;;
17141;SDS011;32805;53.556;9.944;2023-07-13T00:38:25;11.10;;;2.80;;
17141;SDS011;32805;53.556;9.944;2023-07-13T00:40:53;4.32;;;2.85;;
17141;SDS011;32805;53.556;9.944;2023-07-13T00:43:23;4.50;;;2.97;;
17141;SDS011;32805;53.556;9.944;2023-07-13T00:48:48;6.03;;;3.30;;
17141;SDS011;32805;53.556;9.944;2023-07-13T00:51:19;6.10;;;3.58;;
17141;SDS011;32805;53.556;9.944;2023-07-13T00:53:51;4.65;;;3.05;;
17141;SDS011;32805;53.556;9.944;2023-07-13T00:56:21;3.38;;;2.88;;
17141;SDS011;32805;53.556;9.944;2023-07-13T00:58:49;7.20;;;3.53;;
17141;SDS011;32805;53.556;9.944;2023-07-13T01:01:18;5.47;;;3.63;;
17141;SDS011;32805;53.556;9.944;2023-07-13T01:03:45;6.30;;;3.53;;
17141;SDS011;32805;53.556;9.944;2023-07-13T01:06:13;6.57;;;3.50;;
17141;SDS011;32805;53.556;9.944;2023-07-13T01:08:44;5.38;;;3.30;;
17141;SDS011;32805;53.556;9.944;2023-07-13T01:11:11;4.68;;;3.33;;
17141;SDS011;32805;53.556;9.944;2023-07-13T01:13:40;6.10;;;3.88;;
17141;SDS011;32805;53.556;9.944;2023-07-13T01:16:11;7.47;;;4.03;;
17141;SDS011;32805;53.556;9.944;2023-07-13T01:18:42;5.07;;;3.85;;
17141;SDS011;32805;53.556;9.944;2023-07-13T01:21:11;6.00;;;3.78;;
17141;SDS011;32805;53.556;9.944;2023-07-13T01:23:39;4.82;;;4.32;;
17141;SDS011;32805;53.556;9.944;2023-07-13T01:26:06;5.43;;;4.93;;
17141;SDS011;32805;53.556;9.944;2023-07-13T01:28:35;6.18;;;4.00;;
17141;SDS011;32805;53.556;9.944;2023-07-13T01:31:07;6.05;;;4.60;;
17141;SDS011;32805;53.556;9.944;2023-07-13T01:33:36;5.57;;;3.97;;
17141;SDS011;32805;53.556;9.944;2023-07-13T01:36:05;5.60;;;4.18;;
17141;SDS011;32805;53.556;9.944;2023-07-13T01:38:34;4.20;;;3.80;;
17141;SDS011;32805;53.556;9.944;2023-07-13T01:41:03;4.57;;;4.07;;
17141;SDS011;32805;53.556;9.944;2023-07-13T01:43:31;6.20;;;4.57;;
17141;SDS011;32805;53.556;9.944;2023-07-13T01:45:59;9.32;;;4.20;;
17141;SDS011;32805;53.556;9.944;2023-07-13T01:48:46;6.78;;;4.60;;
17141;SDS011;32805;53.556;9.944;2023-07-13T01:51:15;5.53;;;4.57;;
17141;SDS011;32805;53.556;9.944;2023-07-13T01:53:45;6.85;;;4.90;;
17141;SDS011;32805;53.556;9.944;2023-07-13T01:56:13;7.78;;;4.20;;
17141;SDS011;32805;53.556;9.944;2023-07-13T01:58:40;5.75;;;5.15;;
17141;SDS011;32805;53.556;9.944;2023-07-13T02:01:08;7.82;;;5.03;;
17141;SDS011;32805;53.556;9.944;2023-07-13T02:03:36;5.63;;;5.05;;
17141;SDS011;32805;53.556;9.944;2023-07-13T02:06:03;8.30;;;5.22;;
17141;SDS011;32805;53.556;9.944;2023-07-13T02:08:31;5.65;;;4.78;;
17141;SDS011;32805;53.556;9.944;2023-07-13T02:11:02;5.30;;;4.80;;
17141;SDS011;32805;53.556;9.944;2023-07-13T02:13:30;5.93;;;4.72;;
17141;SDS011;32805;53.556;9.944;2023-07-13T02:15:57;6.15;;;4.60;;
17141;SDS011;32805;53.556;9.944;2023-07-13T02:18:25;9.38;;;5.10;;
17141;SDS011;32805;53.556;9.944;2023-07-13T02:20:53;6.40;;;4.80;;
17141;SDS011;32805;53.556;9.944;2023-07-13T02:23:20;7.20;;;5.18;;
17141;SDS011;32805;53.556;9.944;2023-07-13T02:25:48;8.90;;;6.28;;
17141;SDS011;32805;53.556;9.944;2023-07-13T02:28:17;7.50;;;4.82;;
17141;SDS011;32805;53.556;9.944;2023-07-13T02:30:44;5.40;;;4.72;;
17141;SDS011;32805;53.556;9.944;2023-07-13T02:33:12;8.05;;;5.53;;
17141;SDS011;32805;53.556;9.944;2023-07-13T02:35:40;6.47;;;5.32;;
17141;SDS011;32805;53.556;9.944;2023-07-13T02:38:08;6.93;;;5.85;;
17141;SDS011;32805;53.556;9.944;2023-07-13T02:40:35;9.73;;;5.63;;
17141;SDS011;32805;53.556;9.944;2023-07-13T02:43:04;8.52;;;5.75;;
17141;SDS011;32805;53.556;9.944;2023-07-13T02:45:33;7.03;;;5.50;;
17141;SDS011;32805;53.556;9.944;2023-07-13T02:48:01;9.27;;;5.70;;
17141;SDS011;32805;53.556;9.944;2023-07-13T02:50:29;7.25;;;5.15;;
17141;SDS011;32805;53.556;9.944;2023-07-13T02:52:56;6.30;;;5.22;;
17141;SDS011;32805;53.556;9.944;2023-07-13T02:55:24;5.95;;;5.05;;
17141;SDS011;32805;53.556;9.944;2023-07-13T02:57:52;7.75;;;5.03;;
17141;SDS011;32805;53.556;9.944;2023-07-13T03:00:20;5.20;;;4.70;;
17141;SDS011;32805;53.556;9.944;2023-07-13T03:02:49;5.88;;;4.75;;
17141;SDS011;32805;53.556;9.944;2023-07-13T03:05:17;6.63;;;5.00;;
17141;SDS011;32805;53.556;9.944;2023-07-13T03:07:46;8.32;;;5.32;;
17141;SDS011;32805;53.556;9.944;2023-07-13T03:10:13;7.05;;;5.50;;
17141;SDS011;32805;53.556;9.944;2023-07-13T03:12:46;5.95;;;4.82;;
17141;SDS011;32805;53.556;9.944;2023-07-13T03:15:21;7.00;;;5.32;;
17141;SDS011;32805;53.556;9.944;2023-07-13T03:17:51;7.75;;;5.55;;
17141;SDS011;32805;53.556;9.944;2023-07-13T03:20:19;5.28;;;4.75;;
17141;SDS011;32805;53.556;9.944;2023-07-13T03:22:47;6.10;;;5.22;;
17141;SDS011;32805;53.556;9.944;2023-07-13T03:25:16;7.78;;;5.38;;
17141;SDS011;32805;53.556;9.944;2023-07-13T03:27:44;5.88;;;5.03;;
17141;SDS011;32805;53.556;9.944;2023-07-13T03:30:12;9.60;;;6.03;;
17141;SDS011;32805;53.556;9.944;2023-07-13T03:32:41;6.93;;;4.80;;
17141;SDS011;32805;53.556;9.944;2023-07-13T03:35:10;8.70;;;5.53;;
17141;SDS011;32805;53.556;9.944;2023-07-13T03:37:38;5.35;;;4.80;;
17141;SDS011;32805;53.556;9.944;2023-07-13T03:40:12;9.98;;;5.75;;
17141;SDS011;32805;53.556;9.944;2023-07-13T03:42:42;6.88;;;4.90;;
17141;SDS011;32805;53.556;9.944;2023-07-13T03:45:13;5.43;;;4.60;;
17141;SDS011;32805;53.556;9.944;2023-07-13T03:47:40;6.35;;;4.70;;
17141;SDS011;32805;53.556;9.944;2023-07-13T03:50:08;7.22;;;4.50;;
17141;SDS011;32805;53.556;9.944;2023-07-13T03:52:37;9.18;;;4.30;;
17141;SDS011;32805;53.556;9.944;2023-07-13T03:55:05;4.47;;;3.67;;
17141;SDS011;32805;53.556;9.944;2023-07-13T03:57:33;14.32;;;6.43;;
17141;SDS011;32805;53.556;9.944;2023-07-13T04:00:06;7.93;;;4.32;;
17141;SDS011;32805;53.556;9.944;2023-07-13T04:02:41;6.43;;;4.20;;
17141;SDS011;32805;53.556;9.944;2023-07-13T04:05:09;6.47;;;3.67;;
17141;SDS011;32805;53.556;9.944;2023-07-13T04:07:38;5.00;;;3.92;;
17141;SDS011;32805;53.556;9.944;2023-07-13T04:10:06;6.13;;;3.70;;
17141;SDS011;32805;53.556;9.944;2023-07-13T04:12:34;6.30;;;3.38;;
17141;SDS011;32805;53.556;9.944;2023-07-13T04:15:03;7.10;;;3.92;;
17141;SDS011;32805;53.556;9.944;2023-07-13T04:17:31;7.45;;;3.42;;
17141;SDS011;32805;53.556;9.944;2023-07-13T04:19:59;8.48;;;4.13;;
17141;SDS011;32805;53.556;9.944;2023-07-13T04:22:26;7.25;;;3.80;;
17141;SDS011;32805;53.556;9.944;2023-07-13T04:24:55;4.70;;;4.03;;
17141;SDS011;32805;53.556;9.944;2023-07-13T04:27:23;6.15;;;3.75;;
17141;SDS011;32805;53.556;9.944;2023-07-13T04:29:51;5.18;;;3.83;;
17141;SDS011;32805;53.556;9.944;2023-07-13T04:32:18;8.73;;;4.82;;
17141;SDS011;32805;53.556;9.944;2023-07-13T04:34:46;6.43;;;3.85;;
17141;SDS011;32805;53.556;9.944;2023-07-13T04:37:19;6.25;;;4.13;;
17141;SDS011;32805;53.556;9.944;2023-07-13T04:39:47;5.93;;;3.63;;
17141;SDS011;32805;53.556;9.944;2023-07-13T04:42:16;6.65;;;3.95;;
17141;SDS011;32805;53.556;9.944;2023-07-13T04:44:47;7.30;;;4.45;;
17141;SDS011;32805;53.556;9.944;2023-07-13T04:47:15;8.38;;;4.15;;
17141;SDS011;32805;53.556;9.944;2023-07-13T04:49:43;9.10;;;4.28;;
17141;SDS011;32805;53.556;9.944;2023-07-13T04:52:11;5.63;;;3.47;;
17141;SDS011;32805;53.556;9.944;2023-07-13T04:54:39;8.95;;;3.85;;
17141;SDS011;32805;53.556;9.944;2023-07-13T04:57:07;8.13;;;3.92;;
17141;SDS011;32805;53.556;9.944;2023-07-13T04:59:36;8.30;;;3.78;;
17141;SDS011;32805;53.556;9.944;2023-07-13T05:02:04;5.65;;;3.70;;
17141;SDS011;32805;53.556;9.944;2023-07-13T05:04:32;6.60;;;3.80;;
17141;SDS011;32805;53.556;9.944;2023-07-13T05:07:00;10.63;;;3.72;;
17141;SDS011;32805;53.556;9.944;2023-07-13T05:09:27;8.38;;;3.55;;
17141;SDS011;32805;53.556;9.944;2023-07-13T05:11:55;5.68;;;3.53;;
17141;SDS011;32805;53.556;9.944;2023-07-13T05:14:23;4.72;;;3.40;;
17141;SDS011;32805;53.556;9.944;2023-07-13T05:16:52;7.43;;;4.00;;
17141;SDS011;32805;53.556;9.944;2023-07-13T05:19:19;9.13;;;3.85;;
17141;SDS011;32805;53.556;9.944;2023-07-13T05:21:47;7.18;;;4.05;;
17141;SDS011;32805;53.556;9.944;2023-07-13T05:24:14;7.53;;;4.18;;
17141;SDS011;32805;53.556;9.944;2023-07-13T05:26:51;8.82;;;4.05;;
17141;SDS011;32805;53.556;9.944;2023-07-13T05:29:19;6.80;;;4.68;;
17141;SDS011;32805;53.556;9.944;2023-07-13T05:31:47;11.25;;;4.22;;
17141;SDS011;32805;53.556;9.944;2023-07-13T05:34:16;9.18;;;4.15;;
17141;SDS011;32805;53.556;9.944;2023-07-13T05:36:44;6.82;;;3.95;;
17141;SDS011;32805;53.556;9.944;2023-07-13T05:39:12;8.35;;;4.45;;
17141;SDS011;32805;53.556;9.944;2023-07-13T05:41:40;7.03;;;4.15;;
17141;SDS011;32805;53.556;9.944;2023-07-13T05:44:10;13.10;;;4.38;;
17141;SDS011;32805;53.556;9.944;2023-07-13T05:46:38;9.38;;;4.85;;
17141;SDS011;32805;53.556;9.944;2023-07-13T05:49:05;10.07;;;4.60;;
17141;SDS011;32805;53.556;9.944;2023-07-13T05:51:34;8.32;;;4.40;;
17141;SDS011;32805;53.556;9.944;2023-07-13T05:54:02;12.27;;;4.85;;
17141;SDS011;32805;53.556;9.944;2023-07-13T05:56:30;9.77;;;5.20;;
17141;SDS011;32805;53.556;9.944;2023-07-13T05:58:59;8.77;;;4.28;;
17141;SDS011;32805;53.556;9.944;2023-07-13T06:01:27;7.85;;;4.47;;
17141;SDS011;32805;53.556;9.944;2023-07-13T06:03:54;7.35;;;4.15;;
17141;SDS011;32805;53.556;9.944;2023-07-13T06:06:23;7.50;;;4.03;;
17141;SDS011;32805;53.556;9.944;2023-07-13T06:08:52;6.15;;;4.03;;
17141;SDS011;32805;53.556;9.944;2023-07-13T06:11:20;11.35;;;4.40;;
17141;SDS011;32805;53.556;9.944;2023-07-13T06:13:49;12.10;;;4.68;;
17141;SDS011;32805;53.556;9.944;2023-07-13T06:16:17;10.52;;;4.13;;
17141;SDS011;32805;53.556;9.944;2023-07-13T06:18:45;7.85;;;4.20;;
17141;SDS011;32805;53.556;9.944;2023-07-13T06:21:14;10.88;;;3.88;;
17141;SDS011;32805;53.556;9.944;2023-07-13T06:23:43;5.65;;;3.83;;
17141;SDS011;32805;53.556;9.944;2023-07-13T06:26:15;19.23;;;5.35;;
17141;SDS011;32805;53.556;9.944;2023-07-13T06:28:43;8.77;;;3.95;;
17141;SDS011;32805;53.556;9.944;2023-07-13T06:31:11;14.45;;;4.90;;
17141;SDS011;32805;53.556;9.944;2023-07-13T06:33:40;13.10;;;4.78;;
17141;SDS011;32805;53.556;9.944;2023-07-13T06:36:08;9.13;;;3.80;;
17141;SDS011;32805;53.556;9.944;2023-07-13T06:38:36;7.57;;;4.35;;
17141;SDS011;32805;53.556;9.944;2023-07-13T06:41:05;7.97;;;3.50;;
17141;SDS011;32805;53.556;9.944;2023-07-13T06:43:35;9.68;;;3.78;;
17141;SDS011;32805;53.556;9.944;2023-07-13T06:46:03;8.35;;;3.80;;
17141;SDS011;32805;53.556;9.944;2023-07-13T06:48:31;12.10;;;4.43;;
17141;SDS011;32805;53.556;9.944;2023-07-13T06:50:59;7.00;;;4.10;;
17141;SDS011;32805;53.556;9.944;2023-07-13T06:53:26;8.35;;;3.53;;
17141;SDS011;32805;53.556;9.944;2023-07-13T06:55:54;8.68;;;3.47;;
17141;SDS011;32805;53.556;9.944;2023-07-13T06:58:22;6.53;;;3.63;;
17141;SDS011;32805;53.556;9.944;2023-07-13T07:00:52;12.32;;;4.25;;
17141;SDS011;32805;53.556;9.944;2023-07-13T07:03:20;10.57;;;4.38;;
17141;SDS011;32805;53.556;9.944;2023-07-13T07:05:48;8.43;;;3.78;;
17141;SDS011;32805;53.556;9.944;2023-07-13T07:08:15;11.48;;;3.80;;
17141;SDS011;32805;53.556;9.944;2023-07-13T07:10:43;9.70;;;3.83;;
17141;SDS011;32805;53.556;9.944;2023-07-13T07:13:11;12.80;;;5.25;;
17141;SDS011;32805;53.556;9.944;2023-07-13T07:15:39;12.40;;;4.95;;
17141;SDS011;32805;53.556;9.944;2023-07-13T07:18:08;18.42;;;5.82;;
17141;SDS011;32805;53.556;9.944;2023-07-13T07:20:35;7.85;;;3.58;;
17141;SDS011;32805;53.556;9.944;2023-07-13T07:23:04;8.60;;;3.50;;
17141;SDS011;32805;53.556;9.944;2023-07-13T07:25:31;10.10;;;3.50;;
17141;SDS011;32805;53.556;9.944;2023-07-13T07:28:03;8.75;;;3.88;;
17141;SDS011;32805;53.556;9.944;2023-07-13T07:30:33;9.55;;;3.92;;
17141;SDS011;32805;53.556;9.944;2023-07-13T07:33:04;7.72;;;3.42;;
17141;SDS011;32805;53.556;9.944;2023-07-13T07:35:33;12.13;;;3.78;;
17141;SDS011;32805;53.556;9.944;2023-07-13T07:38:07;11.40;;;4.10;;
17141;SDS011;32805;53.556;9.944;2023-07-13T07:40:36;10.88;;;5.00;;
17141;SDS011;32805;53.556;9.944;2023-07-13T07:43:07;8.18;;;3.08;;
17141;SDS011;32805;53.556;9.944;2023-07-13T07:45:35;13.93;;;4.68;;
17141;SDS011;32805;53.556;9.944;2023-07-13T07:48:04;9.75;;;3.78;;
17141;SDS011;32805;53.556;9.944;2023-07-13T07:50:34;7.78;;;3.70;;
17141;SDS011;32805;53.556;9.944;2023-07-13T07:53:02;8.93;;;3.17;;
17141;SDS011;32805;53.556;9.944;2023-07-13T07:55:33;9.75;;;3.42;;
17141;SDS011;32805;53.556;9.944;2023-07-13T07:58:05;8.50;;;4.13;;
17141;SDS011;32805;53.556;9.944;2023-07-13T08:00:53;9.20;;;3.33;;
17141;SDS011;32805;53.556;9.944;2023-07-13T08:03:23;7.97;;;4.25;;
17141;SDS011;32805;53.556;9.944;2023-07-13T08:05:55;9.57;;;3.65;;
17141;SDS011;32805;53.556;9.944;2023-07-13T08:08:43;9.63;;;3.92;;
17141;SDS011;32805;53.556;9.944;2023-07-13T08:11:10;5.80;;;3.45;;
17141;SDS011;32805;53.556;9.944;2023-07-13T08:13:41;10.13;;;3.67;;
17141;SDS011;32805;53.556;9.944;2023-07-13T08:16:09;9.90;;;3.72;;
17141;SDS011;32805;53.556;9.944;2023-07-13T08:18:38;11.70;;;3.45;;
17141;SDS011;32805;53.556;9.944;2023-07-13T08:21:07;8.50;;;3.28;;
17141;SDS011;32805;53.556;9.944;2023-07-13T08:23:37;6.55;;;3.22;;
17141;SDS011;32805;53.556;9.944;2023-07-13T08:26:05;5.85;;;3.38;;
17141;SDS011;32805;53.556;9.944;2023-07-13T08:28:33;7.07;;;2.95;;
17141;SDS011;32805;53.556;9.944;2023-07-13T08:31:02;7.93;;;3.03;;
17141;SDS011;32805;53.556;9.944;2023-07-13T08:33:31;8.48;;;3.85;;
17141;SDS011;32805;53.556;9.944;2023-07-13T08:35:59;9.13;;;3.70;;
17141;SDS011;32805;53.556;9.944;2023-07-13T08:38:34;5.72;;;3.05;;
17141;SDS011;32805;53.556;9.944;2023-07-13T08:41:09;4.25;;;2.75;;
17141;SDS011;32805;53.556;9.944;2023-07-13T08:43:39;8.77;;;3.20;;
17141;SDS011;32805;53.556;9.944;2023-07-13T08:46:12;4.00;;;2.70;;
17141;SDS011;32805;53.556;9.944;2023-07-13T08:48:52;9.27;;;2.95;;
17141;SDS011;32805;53.556;9.944;2023-07-13T08:51:43;5.78;;;3.00;;
17141;SDS011;32805;53.556;9.944;2023-07-13T08:54:56;9.38;;;3.35;;
17141;SDS011;32805;53.556;9.944;2023-07-13T08:57:35;8.73;;;3.13;;
17141;SDS011;32805;53.556;9.944;2023-07-13T09:00:12;8.38;;;2.83;;
17141;SDS011;32805;53.556;9.944;2023-07-13T09:02:42;7.85;;;2.88;;
17141;SDS011;32805;53.556;9.944;2023-07-13T09:05:22;6.85;;;2.90;;
17141;SDS011;32805;53.556;9.944;2023-07-13T09:08:07;7.15;;;2.50;;
17141;SDS011;32805;53.556;9.944;2023-07-13T09:10:50;6.78;;;2.53;;
17141;SDS011;32805;53.556;9.944;2023-07-13T09:13:26;8.05;;;2.35;;
17141;SDS011;32805;53.556;9.944;2023-07-13T09:16:00;4.28;;;2.58;;
17141;SDS011;32805;53.556;9.944;2023-07-13T09:18:30;8.50;;;2.75;;
17141;SDS011;32805;53.556;9.944;2023-07-13T09:21:08;6.38;;;3.17;;
17141;SDS011;32805;53.556;9.944;2023-07-13T09:23:40;8.65;;;3.22;;
17141;SDS011;32805;53.556;9.944;2023-07-13T09:26:13;5.40;;;2.60;;
17141;SDS011;32805;53.556;9.944;2023-07-13T09:28:47;4.97;;;2.42;;
17141;SDS011;32805;53.556;9.944;2023-07-13T09:31:19;2.25;;;2.05;;
17141;SDS011;32805;53.556;9.944;2023-07-13T09:33:51;8.38;;;2.75;;
17141;SDS011;32805;53.556;9.944;2023-07-13T09:36:22;9.23;;;4.18;;
17141;SDS011;32805;53.556;9.944;2023-07-13T09:39:02;8.75;;;3.38;;
17141;SDS011;32805;53.556;9.944;2023-07-13T09:41:39;8.35;;;3.38;;
17141;SDS011;32805;53.556;9.944;2023-07-13T09:44:13;6.35;;;2.95;;
17141;SDS011;32805;53.556;9.944;2023-07-13T09:46:43;7.60;;;2.97;;
17141;SDS011;32805;53.556;9.944;2023-07-13T09:49:13;6.50;;;3.00;;
17141;SDS011;32805;53.556;9.944;2023-07-13T09:51:42;5.28;;;2.40;;
17141;SDS011;32805;53.556;9.944;2023-07-13T09:54:20;4.05;;;2.28;;
17141;SDS011;32805;53.556;9.944;2023-07-13T09:56:55;5.68;;;3.30;;
17141;SDS011;32805;53.556;9.944;2023-07-13T09:59:24;5.20;;;2.28;;
17141;SDS011;32805;53.556;9.944;2023-07-13T10:01:56;5.85;;;2.70;;
17141;SDS011;32805;53.556;9.944;2023-07-13T10:04:27;13.20;;;5.45;;
17141;SDS011;32805;53.556;9.944;2023-07-13T10:07:04;5.55;;;2.33;;
17141;SDS011;32805;53.556;9.944;2023-07-13T10:09:53;6.43;;;2.58;;
17141;SDS011;32805;53.556;9.944;2023-07-13T10:12:23;5.43;;;2.53;;
17141;SDS011;32805;53.556;9.944;2023-07-13T10:14:52;7.32;;;2.40;;
17141;SDS011;32805;53.556;9.944;2023-07-13T10:17:38;6.72;;;2.88;;
17141;SDS011;32805;53.556;9.944;2023-07-13T10:20:07;8.05;;;2.72;;
17141;SDS011;32805;53.556;9.944;2023-07-13T10:22:40;4.57;;;2.08;;
17141;SDS011;32805;53.556;9.944;2023-07-13T10:25:13;7.10;;;2.47;;
17141;SDS011;32805;53.556;9.944;2023-07-13T10:27:45;4.95;;;2.22;;
17141;SDS011;32805;53.556;9.944;2023-07-13T10:30:15;5.32;;;2.35;;
17141;SDS011;32805;53.556;9.944;2023-07-13T10:32:48;6.28;;;2.53;;
17141;SDS011;32805;53.556;9.944;2023-07-13T10:35:19;5.68;;;2.10;;
17141;SDS011;32805;53.556;9.944;2023-07-13T10:37:49;5.15;;;2.17;;
17141;SDS011;32805;53.556;9.944;2023-07-13T10:40:23;5.18;;;2.35;;
17141;SDS011;32805;53.556;9.944;2023-07-13T10:42:57;3.85;;;2.45;;
17141;SDS011;32805;53.556;9.944;2023-07-13T10:45:28;6.00;;;3.00;;
17141;SDS011;32805;53.556;9.944;2023-07-13T10:47:58;5.07;;;2.00;;
17141;SDS011;32805;53.556;9.944;2023-07-13T10:50:28;6.85;;;2.30;;
17141;SDS011;32805;53.556;9.944;2023-07-13T10:53:01;6.25;;;2.58;;
17141;SDS011;32805;53.556;9.944;2023-07-13T10:55:31;5.03;;;2.20;;
17141;SDS011;32805;53.556;9.944;2023-07-13T10:58:13;3.42;;;2.03;;
17141;SDS011;32805;53.556;9.944;2023-07-13T11:00:49;3.05;;;2.05;;
17141;SDS011;32805;53.556;9.944;2023-07-13T11:03:20;3.80;;;1.80;;
17141;SDS011;32805;53.556;9.944;2023-07-13T11:05:49;3.00;;;1.95;;
17141;SDS011;32805;53.556;9.944;2023-07-13T11:08:34;4.38;;;2.25;;
17141;SDS011;32805;53.556;9.944;2023-07-13T11:11:31;2.78;;;1.95;;
17141;SDS011;32805;53.556;9.944;2023-07-13T11:14:04;5.75;;;2.10;;
17141;SDS011;32805;53.556;9.944;2023-07-13T11:16:53;4.15;;;2.03;;
17141;SDS011;32805;53.556;9.944;2023-07-13T11:19:28;4.82;;;2.17;;
17141;SDS011;32805;53.556;9.944;2023-07-13T11:22:22;3.78;;;1.90;;
17141;SDS011;32805;53.556;9.944;2023-07-13T11:24:54;2.83;;;1.90;;
17141;SDS011;32805;53.556;9.944;2023-07-13T11:27:33;3.40;;;1.83;;
17141;SDS011;32805;53.556;9.944;2023-07-13T11:30:09;5.05;;;1.98;;
17141;SDS011;32805;53.556;9.944;2023-07-13T11:32:50;4.45;;;1.95;;
17141;SDS011;32805;53.556;9.944;2023-07-13T11:35:21;3.50;;;1.98;;
17141;SDS011;32805;53.556;9.944;2023-07-13T11:37:50;3.80;;;2.35;;
17141;SDS011;32805;53.556;9.944;2023-07-13T11:40:19;3.80;;;1.85;;
17141;SDS011;32805;53.556;9.944;2023-07-13T11:42:58;3.63;;;1.60;;
17141;SDS011;32805;53.556;9.944;2023-07-13T11:45:30;3.88;;;1.70;;
17141;SDS011;32805;53.556;9.944;2023-07-13T11:48:20;3.72;;;1.60;;
17141;SDS011;32805;53.556;9.944;2023-07-13T11:50:50;5.88;;;2.15;;
17141;SDS011;32805;53.556;9.944;2023-07-13T11:53:22;3.70;;;1.90;;
17141;SDS011;32805;53.556;9.944;2023-07-13T11:55:53;3.90;;;1.88;;
17141;SDS011;32805;53.556;9.944;2023-07-13T11:58:21;5.53;;;2.00;;
17141;SDS011;32805;53.556;9.944;2023-07-13T12:00:52;3.58;;;1.77;;
17141;SDS011;32805;53.556;9.944;2023-07-13T12:03:21;6.10;;;2.00;;
17141;SDS011;32805;53.556;9.944;2023-07-13T12:05:55;4.65;;;2.25;;
17141;SDS011;32805;53.556;9.944;2023-07-13T12:08:24;4.55;;;1.83;;
17141;SDS011;32805;53.556;9.944;2023-07-13T12:10:59;5.60;;;1.90;;
17141;SDS011;32805;53.556;9.944;2023-07-13T12:13:28;4.88;;;1.85;;
17141;SDS011;32805;53.556;9.944;2023-07-13T12:15:57;5.50;;;1.88;;
17141;SDS011;32805;53.556;9.944;2023-07-13T12:18:28;3.42;;;1.58;;
17141;SDS011;32805;53.556;9.944;2023-07-13T12:20:58;7.80;;;2.35;;
17141;SDS011;32805;53.556;9.944;2023-07-13T12:23:28;20.80;;;3.88;;
17141;SDS011;32805;53.556;9.944;2023-07-13T12:25:58;9.27;;;3.17;;
17141;SDS011;32805;53.556;9.944;2023-07-13T12:28:31;7.85;;;3.63;;
17141;SDS011;32805;53.556;9.944;2023-07-13T12:31:03;7.78;;;3.75;;
17141;SDS011;32805;53.556;9.944;2023-07-13T12:33:33;7.53;;;3.85;;
17141;SDS011;32805;53.556;9.944;2023-07-13T12:36:02;7.20;;;4.30;;
17141;SDS011;32805;53.556;9.944;2023-07-13T12:38:32;7.22;;;4.43;;
17141;SDS011;32805;53.556;9.944;2023-07-13T12:41:00;6.85;;;4.30;;
17141;SDS011;32805;53.556;9.944;2023-07-13T12:43:30;10.65;;;4.13;;
17141;SDS011;32805;53.556;9.944;2023-07-13T12:46:17;6.88;;;4.05;;
17141;SDS011;32805;53.556;9.944;2023-07-13T12:48:48;6.35;;;3.85;;
17141;SDS011;32805;53.556;9.944;2023-07-13T12:51:37;4.82;;;3.63;;
17141;SDS011;32805;53.556;9.944;2023-07-13T12:54:12;5.55;;;4.38;;
17141;SDS011;32805;53.556;9.944;2023-07-13T12:56:43;5.63;;;3.85;;
17141;SDS011;32805;53.556;9.944;2023-07-13T12:59:15;8.70;;;4.03;;
17141;SDS011;32805;53.556;9.944;2023-07-13T13:01:46;4.53;;;3.60;;
17141;SDS011;32805;53.556;9.944;2023-07-13T13:04:16;7.63;;;2.95;;
17141;SDS011;32805;53.556;9.944;2023-07-13T13:06:48;5.95;;;3.22;;
17141;SDS011;32805;53.556;9.944;2023-07-13T13:09:17;3.45;;;2.55;;
17141;SDS011;32805;53.556;9.944;2023-07-13T13:11:46;6.72;;;2.92;;
17141;SDS011;32805;53.556;9.944;2023-07-13T13:14:14;4.10;;;3.20;;
17141;SDS011;32805;53.556;9.944;2023-07-13T13:16:47;8.57;;;4.30;;
17141;SDS011;32805;53.556;9.944;2023-07-13T13:19:17;5.78;;;3.47;;
17141;SDS011;32805;53.556;9.944;2023-07-13T13:21:48;4.07;;;3.17;;
17141;SDS011;32805;53.556;9.944;2023-07-13T13:24:19;4.35;;;3.35;;
17141;SDS011;32805;53.556;9.944;2023-07-13T13:26:49;6.32;;;3.20;;
17141;SDS011;32805;53.556;9.944;2023-07-13T13:29:18;4.25;;;3.08;;
17141;SDS011;32805;53.556;9.944;2023-07-13T13:31:51;6.15;;;4.20;;
17141;SDS011;32805;53.556;9.944;2023-07-13T13:34:20;3.65;;;2.40;;
17141;SDS011;32805;53.556;9.944;2023-07-13T13:36:49;3.47;;;2.58;;
17141;SDS011;32805;53.556;9.944;2023-07-13T13:39:22;4.28;;;2.85;;
17141;SDS011;32805;53.556;9.944;2023-07-13T13:41:52;6.20;;;2.28;;
17141;SDS011;32805;53.556;9.944;2023-07-13T13:44:21;6.07;;;2.30;;
17141;SDS011;32805;53.556;9.944;2023-07-13T13:46:52;3.10;;;1.90;;
17141;SDS011;32805;53.556;9.944;2023-07-13T13:49:23;4.18;;;1.75;;
17141;SDS011;32805;53.556;9.944;2023-07-13T13:51:53;3.97;;;1.60;;
17141;SDS011;32805;53.556;9.944;2023-07-13T13:54:22;2.90;;;1.75;;
17141;SDS011;32805;53.556;9.944;2023-07-13T13:56:52;2.45;;;1.88;;
17141;SDS011;32805;53.556;9.944;2023-07-13T13:59:20;4.32;;;1.80;;
17141;SDS011;32805;53.556;9.944;2023-07-13T14:01:48;3.67;;;2.10;;
17141;SDS011;32805;53.556;9.944;2023-07-13T14:04:20;3.00;;;1.90;;
17141;SDS011;32805;53.556;9.944;2023-07-13T14:06:49;3.97;;;2.00;;
17141;SDS011;32805;53.556;9.944;2023-07-13T14:09:17;2.75;;;1.80;;
17141;SDS011;32805;53.556;9.944;2023-07-13T14:11:46;3.58;;;2.40;;
17141;SDS011;32805;53.556;9.944;2023-07-13T14:14:17;2.78;;;2.33;;
17141;SDS011;32805;53.556;9.944;2023-07-13T14:16:50;2.85;;;2.00;;
17141;SDS011;32805;53.556;9.944;2023-07-13T14:19:22;3.70;;;2.00;;
17141;SDS011;32805;53.556;9.944;2023-07-13T14:21:50;4.53;;;2.22;;
17141;SDS011;32805;53.556;9.944;2023-07-13T14:24:20;3.03;;;2.20;;
17141;SDS011;32805;53.556;9.944;2023-07-13T14:26:48;3.03;;;1.88;;
17141;SDS011;32805;53.556;9.944;2023-07-13T14:29:16;2.50;;;2.13;;
17141;SDS011;32805;53.556;9.944;2023-07-13T14:31:50;4.03;;;2.10;;
17141;SDS011;32805;53.556;9.944;2023-07-13T14:34:18;3.65;;;2.05;;
17141;SDS011;32805;53.556;9.944;2023-07-13T14:36:48;3.10;;;1.80;;
17141;SDS011;32805;53.556;9.944;2023-07-13T14:39:17;2.28;;;1.70;;
17141;SDS011;32805;53.556;9.944;2023-07-13T14:41:49;2.80;;;1.95;;
17141;SDS011;32805;53.556;9.944;2023-07-13T14:44:20;3.35;;;1.95;;
17141;SDS011;32805;53.556;9.944;2023-07-13T14:46:49;3.90;;;2.10;;
17141;SDS011;32805;53.556;9.944;2023-07-13T14:49:21;3.97;;;1.92;;
17141;SDS011;32805;53.556;9.944;2023-07-13T14:51:54;3.00;;;2.42;;
17141;SDS011;32805;53.556;9.944;2023-07-13T14:54:23;3.78;;;2.80;;
17141;SDS011;32805;53.556;9.944;2023-07-13T14:56:51;3.03;;;2.58;;
17141;SDS011;32805;53.556;9.944;2023-07-13T14:59:19;2.92;;;2.63;;
17141;SDS011;32805;53.556;9.944;2023-07-13T15:01:47;4.25;;;2.83;;
17141;SDS011;32805;53.556;9.944;2023-07-13T15:04:16;4.90;;;2.50;;
17141;SDS011;32805;53.556;9.944;2023-07-13T15:06:54;6.43;;;2.60;;
17141;SDS011;32805;53.556;9.944;2023-07-13T15:09:23;5.68;;;2.90;;